createdAt,value
2018-09-02T11:23:21.718Z,56.11
2018-09-02T11:25:49.063Z,52.73
2018-09-02T11:28:16.406Z,45.75
2018-09-02T11:30:43.646Z,37.79
2018-09-02T11:33:10.965Z,32.07
2018-09-02T11:35:38.251Z,33.98
2018-09-02T11:38:05.733Z,34.35
2018-09-02T11:40:33.127Z,35.88
2018-09-02T11:43:00.508Z,43.04
2018-09-02T11:45:27.814Z,44.73
2018-09-02T11:47:55.082Z,38.04
2018-09-02T11:50:22.377Z,29.96
2018-09-02T11:52:49.645Z,35.09
2018-09-02T11:55:16.932Z,35.71
2018-09-02T11:57:44.393Z,28.83
2018-09-02T12:00:11.569Z,30.77
2018-09-02T12:02:38.881Z,37.48
2018-09-02T12:05:06.372Z,38.56
2018-09-02T12:07:33.638Z,36.90
2018-09-02T12:10:01.011Z,37.72
2018-09-02T12:12:30.301Z,38.63
2018-09-02T12:14:58.692Z,36.56
2018-09-02T12:17:25.832Z,37.13
2018-09-02T12:19:53.743Z,36.66
2018-09-02T12:22:21.117Z,36.91
2018-09-02T12:24:48.485Z,34.36
2018-09-02T12:27:15.817Z,38.23
2018-09-02T12:29:43.172Z,33.45
2018-09-02T12:32:11.130Z,30.82
2018-09-02T12:34:38.428Z,23.58
2018-09-02T12:37:05.776Z,21.20
2018-09-02T12:39:33.070Z,19.86
2018-09-02T12:42:00.389Z,19.68
2018-09-02T12:44:27.718Z,24.93
2018-09-02T12:46:55.799Z,28.87
2018-09-02T12:49:23.162Z,32.38
2018-09-02T12:51:51.308Z,32.95
2018-09-02T12:54:18.718Z,25.26
2018-09-02T12:56:46.109Z,22.45
2018-09-02T12:59:13.421Z,21.65
2018-09-02T13:01:40.786Z,22.53
2018-09-02T13:04:08.084Z,22.40
2018-09-02T13:06:35.403Z,19.67
2018-09-02T13:09:03.318Z,18.30
2018-09-02T13:11:30.575Z,24.59
2018-09-02T13:13:57.965Z,23.29
2018-09-02T13:16:25.277Z,21.93
2018-09-02T13:18:52.700Z,24.42
2018-09-02T13:21:20.015Z,19.03
2018-09-02T13:23:47.484Z,17.76
2018-09-02T13:26:14.796Z,17.56
2018-09-02T13:28:42.149Z,15.43
2018-09-02T13:31:09.517Z,15.13
2018-09-02T13:33:36.825Z,23.82
2018-09-02T13:36:04.224Z,28.17
2018-09-02T13:38:31.629Z,29.08
2018-09-02T13:40:59.022Z,27.87
2018-09-02T13:43:26.361Z,19.20
2018-09-02T13:45:53.673Z,18.35
2018-09-02T13:48:21.141Z,16.97
2018-09-02T13:50:48.376Z,15.24
2018-09-02T13:53:15.814Z,19.41
2018-09-02T13:55:43.777Z,25.81
2018-09-02T13:58:11.108Z,29.44
2018-09-02T14:00:38.361Z,31.06
2018-09-02T14:03:05.784Z,29.90
2018-09-02T14:05:33.183Z,21.17
2018-09-02T14:08:00.667Z,17.83
2018-09-02T14:10:28.293Z,18.29
2018-09-02T14:12:55.689Z,18.67
2018-09-02T14:15:23.278Z,16.13
2018-09-02T14:17:50.692Z,16.35
2018-09-02T14:20:17.933Z,16.78
2018-09-02T14:22:45.372Z,16.37
2018-09-02T14:25:12.838Z,16.31
2018-09-02T14:27:40.785Z,15.82
2018-09-02T14:30:08.381Z,16.30
2018-09-02T14:32:35.854Z,15.37
2018-09-02T14:35:03.300Z,17.31
2018-09-02T14:37:30.767Z,16.04
2018-09-02T14:39:58.129Z,15.83
2018-09-02T14:42:25.598Z,15.30
2018-09-02T14:44:52.927Z,15.46
2018-09-02T14:47:20.278Z,15.81
2018-09-02T14:49:47.603Z,15.59
2018-09-02T14:52:15.018Z,16.73
2018-09-02T14:54:42.884Z,20.20
2018-09-02T14:57:10.157Z,24.07
2018-09-02T14:59:37.434Z,17.66
2018-09-02T15:02:04.721Z,16.03
2018-09-02T15:04:32.018Z,15.84
2018-09-02T15:06:59.413Z,14.74
2018-09-02T15:09:26.681Z,14.89
2018-09-02T15:11:53.927Z,13.96
2018-09-02T15:14:21.185Z,12.83
2018-09-02T15:16:48.501Z,13.43
2018-09-02T15:19:16.022Z,12.86
2018-09-02T15:21:43.244Z,13.53
2018-09-02T15:24:10.667Z,13.02
2018-09-02T15:26:37.918Z,13.87
2018-09-02T15:29:05.184Z,13.81
2018-09-02T15:31:32.486Z,14.17
2018-09-02T15:34:00.421Z,14.02
2018-09-02T15:36:27.753Z,14.88
2018-09-02T15:38:55.074Z,14.69
2018-09-02T15:41:22.429Z,13.59
2018-09-02T15:43:49.722Z,13.92
2018-09-02T15:46:17.030Z,14.73
2018-09-02T15:48:44.936Z,13.92
2018-09-02T15:51:12.494Z,14.79
2018-09-02T15:53:39.779Z,15.09
2018-09-02T15:56:07.029Z,15.17
2018-09-02T15:58:34.471Z,15.49
2018-09-02T16:01:01.969Z,14.42
2018-09-02T16:03:29.230Z,16.32
2018-09-02T16:05:56.520Z,16.20
2018-09-02T16:08:25.398Z,16.51
2018-09-02T16:10:52.733Z,16.17
2018-09-02T16:13:20.017Z,18.73
2018-09-02T16:15:47.358Z,18.81
2018-09-02T16:18:14.621Z,22.88
2018-09-02T16:20:41.874Z,26.44
2018-09-02T16:23:09.128Z,27.92
2018-09-02T16:25:36.411Z,28.02
2018-09-02T16:28:03.723Z,30.20
2018-09-02T16:30:31.154Z,32.60
2018-09-02T16:32:58.567Z,33.30
2018-09-02T16:35:25.848Z,34.27
2018-09-02T16:37:53.219Z,34.61
2018-09-02T16:40:20.498Z,36.17
2018-09-02T16:42:48.549Z,36.46
2018-09-02T16:45:15.906Z,37.32
2018-09-02T16:47:43.360Z,38.14
2018-09-02T16:50:10.861Z,38.57
2018-09-02T16:52:38.244Z,39.27
2018-09-02T16:55:05.555Z,39.44
2018-09-02T16:57:32.850Z,40.10
2018-09-02T17:00:00.142Z,40.61
2018-09-02T17:02:27.785Z,41.45
2018-09-02T17:04:59.579Z,41.91
2018-09-02T17:07:27.023Z,41.93
2018-09-02T17:09:54.323Z,43.08
2018-09-02T17:12:22.598Z,43.55
2018-09-02T17:14:50.438Z,44.02
2018-09-02T17:17:17.711Z,45.34
2018-09-02T17:19:48.070Z,45.82
2018-09-02T17:22:15.447Z,45.92
2018-09-02T17:24:42.802Z,45.97
2018-09-02T17:27:10.235Z,46.99
2018-09-02T17:29:37.592Z,46.80
2018-09-02T17:32:09.013Z,47.82
2018-09-02T17:34:36.432Z,47.63
2018-09-02T17:37:03.692Z,47.74
2018-09-02T17:39:31.020Z,47.92
2018-09-02T17:41:58.485Z,48.30
2018-09-02T17:44:25.958Z,49.26
2018-09-02T17:46:53.397Z,48.90
2018-09-02T17:49:20.641Z,49.83
2018-09-02T17:51:47.926Z,49.93
2018-09-02T17:54:15.449Z,50.62
2018-09-02T17:56:42.817Z,50.61
2018-09-02T17:59:10.180Z,51.13
2018-09-02T18:01:37.695Z,51.50
2018-09-02T18:04:05.019Z,51.88
2018-09-02T18:06:32.302Z,51.86
2018-09-02T18:08:59.717Z,51.42
2018-09-02T18:11:27.017Z,52.50
2018-09-02T18:13:54.414Z,52.51
2018-09-02T18:16:21.940Z,52.66
2018-09-02T18:18:49.746Z,52.76
2018-09-02T18:21:17.068Z,53.30
2018-09-02T18:23:45.253Z,53.27
2018-09-02T18:26:12.832Z,54.63
2018-09-02T18:28:42.553Z,53.99
2018-09-02T18:31:09.962Z,54.33
2018-09-02T18:33:37.563Z,55.02
2018-09-02T18:36:05.225Z,55.38
2018-09-02T18:38:32.738Z,54.98
2018-09-02T18:41:00.361Z,55.56
2018-09-02T18:43:27.795Z,55.77
2018-09-02T18:45:55.841Z,55.85
2018-09-02T18:48:23.846Z,55.93
2018-09-02T18:50:51.921Z,56.07
2018-09-02T18:53:19.596Z,56.35
2018-09-02T18:55:47.373Z,56.54
2018-09-02T18:58:15.009Z,57.26
2018-09-02T19:00:42.706Z,56.69
2018-09-02T19:03:10.153Z,57.28
2018-09-02T19:05:37.582Z,57.29
2018-09-02T19:08:05.768Z,57.68
2018-09-02T19:10:33.653Z,57.24
2018-09-02T19:13:00.934Z,58.07
2018-09-02T19:15:28.486Z,58.52
2018-09-02T19:17:55.886Z,58.28
2018-09-02T19:20:23.493Z,57.82
2018-09-02T19:22:51.068Z,58.25
2018-09-02T19:25:18.406Z,58.70
2018-09-02T19:27:45.983Z,59.06
2018-09-02T19:30:13.265Z,58.53
2018-09-02T19:32:40.781Z,58.38
2018-09-02T19:35:08.050Z,58.90
2018-09-02T19:37:36.205Z,59.31
2018-09-02T19:40:03.681Z,59.95
2018-09-02T19:42:31.483Z,59.28
2018-09-02T19:44:58.921Z,59.87
2018-09-02T19:47:26.361Z,60.47
2018-09-02T19:49:53.821Z,60.26
2018-09-02T19:52:21.674Z,61.62
2018-09-02T19:54:49.313Z,61.76
2018-09-02T19:57:16.696Z,61.15
2018-09-02T19:59:44.056Z,61.00
2018-09-02T20:02:11.404Z,62.13
2018-09-02T20:04:38.694Z,62.12
2018-09-02T20:07:05.948Z,62.20
2018-09-02T20:09:33.427Z,62.25
2018-09-02T20:12:00.719Z,62.86
2018-09-02T20:14:28.069Z,63.09
2018-09-02T20:16:55.374Z,63.35
2018-09-02T20:19:22.730Z,62.72
2018-09-02T20:21:50.148Z,63.68
2018-09-02T20:24:17.903Z,63.53
2018-09-02T20:26:45.249Z,63.58
2018-09-02T20:29:12.597Z,64.53
2018-09-02T20:31:39.892Z,64.83
2018-09-02T20:34:07.130Z,64.12
2018-09-02T20:36:34.387Z,64.67
2018-09-02T20:39:01.668Z,64.56
2018-09-02T20:41:29.433Z,64.98
2018-09-02T20:43:56.936Z,64.90
2018-09-02T20:46:24.251Z,65.82
2018-09-02T20:48:51.857Z,66.29
2018-09-02T20:51:19.070Z,66.68
2018-09-02T20:53:46.402Z,65.85
2018-09-02T20:56:14.054Z,66.10
2018-09-02T20:58:41.338Z,66.74
2018-09-02T21:01:08.685Z,66.44
2018-09-02T21:03:36.007Z,67.74
2018-09-02T21:06:03.322Z,66.96
2018-09-02T21:08:30.764Z,66.99
2018-09-02T21:10:58.071Z,68.00
2018-09-02T21:13:25.411Z,67.05
2018-09-02T21:15:52.740Z,67.40
2018-09-02T21:18:20.032Z,67.34
2018-09-02T21:20:47.751Z,66.73
2018-09-02T21:23:14.981Z,67.16
2018-09-02T21:25:42.340Z,68.25
2018-09-02T21:28:09.714Z,67.93
2018-09-02T21:30:37.013Z,67.45
2018-09-02T21:33:04.351Z,68.10
2018-09-02T21:35:31.810Z,67.53
2018-09-02T21:37:59.082Z,67.52
2018-09-02T21:40:26.305Z,67.44
2018-09-02T21:42:53.919Z,68.76
2018-09-02T21:45:21.347Z,68.81
2018-09-02T21:47:48.678Z,70.84
2018-09-02T21:50:16.193Z,69.12
2018-09-02T21:52:43.644Z,69.25
2018-09-02T21:55:10.926Z,70.08
2018-09-02T21:57:38.201Z,70.01
2018-09-02T22:00:08.854Z,70.23
2018-09-02T22:02:36.309Z,70.60
2018-09-02T22:05:03.648Z,69.82
2018-09-02T22:07:31.041Z,70.48
2018-09-02T22:09:58.314Z,71.97
2018-09-02T22:12:25.751Z,70.89
2018-09-02T22:14:53.134Z,71.20
2018-09-02T22:17:21.111Z,70.72
2018-09-02T22:19:48.419Z,71.43
2018-09-02T22:22:16.034Z,71.48
2018-09-02T22:24:43.477Z,71.67
2018-09-02T22:27:10.816Z,72.29
2018-09-02T22:29:38.127Z,72.22
2018-09-02T22:32:05.537Z,73.27
2018-09-02T22:34:32.973Z,72.71
2018-09-02T22:37:00.244Z,72.51
2018-09-02T22:39:27.591Z,72.09
2018-09-02T22:41:54.865Z,72.86
2018-09-02T22:44:22.264Z,73.48
2018-09-02T22:46:49.597Z,72.39
2018-09-02T22:49:17.167Z,72.94
2018-09-02T22:51:44.714Z,72.89
2018-09-02T22:54:11.938Z,72.62
2018-09-02T22:56:39.165Z,73.11
2018-09-02T22:59:06.421Z,72.69
2018-09-02T23:01:33.848Z,73.36
2018-09-02T23:04:01.133Z,73.03
2018-09-02T23:06:28.380Z,73.27
2018-09-02T23:08:55.622Z,73.08
2018-09-02T23:11:22.992Z,72.96
2018-09-02T23:13:50.331Z,73.36
2018-09-02T23:16:17.746Z,72.79
2018-09-02T23:18:45.017Z,73.56
2018-09-02T23:21:12.284Z,73.08
2018-09-02T23:23:39.545Z,73.69
2018-09-02T23:26:06.923Z,73.39
2018-09-02T23:28:34.215Z,73.75
2018-09-02T23:31:01.683Z,73.73
2018-09-02T23:33:29.016Z,73.25
2018-09-02T23:35:56.411Z,74.12
2018-09-02T23:38:24.113Z,74.47
2018-09-02T23:40:51.340Z,73.58
2018-09-02T23:43:18.603Z,74.76
2018-09-02T23:45:45.933Z,74.07
2018-09-02T23:48:13.166Z,74.75
2018-09-02T23:50:40.478Z,73.64
2018-09-02T23:53:07.820Z,74.77
2018-09-02T23:55:35.289Z,74.54
2018-09-02T23:58:03.262Z,74.55
